Time;durP1;ratioP1;P1;durP2;ratioP2;P2;SDS_P1;SDS_P2;PMS_P1;PMS_P2;Temp;Humidity;BMP_temperature;BMP_pressure;BME280_temperature;BME280_humidity;BME280_pressure;Samples;Min_cycle;Max_cycle;Signal;HPM_P1;HPM_P2
2024/01/06 00:01:16;;;;;;;39.80;15.75;;;7.30;99.90;;;;;;5107700;28;20529;-69
2024/01/06 00:03:42;;;;;;;42.00;16.95;;;7.20;99.90;;;;;;5088737;28;20031;-70
2024/01/06 00:06:11;;;;;;;33.38;13.55;;;7.20;99.90;;;;;;5107695;28;20012;-69
2024/01/06 00:08:36;;;;;;;35.33;14.70;;;7.20;99.90;;;;;;5107022;28;20027;-71
2024/01/06 00:11:02;;;;;;;35.83;14.85;;;7.20;99.90;;;;;;5107277;28;20042;-69
2024/01/06 00:13:28;;;;;;;35.20;14.82;;;7.10;99.90;;;;;;5106728;28;20102;-69
2024/01/06 00:15:54;;;;;;;32.40;13.48;;;7.10;99.90;;;;;;5107198;28;20111;-69
2024/01/06 00:18:19;;;;;;;34.58;14.68;;;7.10;99.90;;;;;;5107082;28;20027;-69
2024/01/06 00:20:45;;;;;;;28.25;12.55;;;7.10;99.90;;;;;;5106966;28;20050;-69
2024/01/06 00:23:10;;;;;;;38.45;14.70;;;7.00;99.90;;;;;;5107301;28;20016;-69
2024/01/06 00:25:36;;;;;;;38.40;15.02;;;7.00;99.90;;;;;;5106953;28;20023;-69
2024/01/06 00:28:02;;;;;;;34.50;14.25;;;7.00;99.90;;;;;;5107286;28;20019;-69
2024/01/06 00:30:27;;;;;;;30.98;14.15;;;7.00;99.90;;;;;;5106768;28;20059;-69
2024/01/06 00:32:53;;;;;;;35.30;15.25;;;7.00;99.90;;;;;;5088544;28;20122;-69
2024/01/06 00:35:19;;;;;;;30.80;13.45;;;6.90;99.90;;;;;;5106956;28;20024;-69
2024/01/06 00:37:45;;;;;;;33.78;14.13;;;6.90;99.90;;;;;;5106752;28;20043;-69
2024/01/06 00:40:11;;;;;;;34.00;14.18;;;6.90;99.90;;;;;;5106750;28;20526;-69
2024/01/06 00:42:36;;;;;;;35.65;15.00;;;6.90;99.90;;;;;;5107016;28;20099;-69
2024/01/06 00:45:04;;;;;;;30.65;12.60;;;6.90;99.90;;;;;;5106883;28;20099;-69
2024/01/06 00:47:29;;;;;;;31.42;13.85;;;6.80;99.90;;;;;;5088863;28;20028;-69
2024/01/06 00:49:55;;;;;;;37.70;13.95;;;6.80;99.90;;;;;;5106847;28;20019;-69
2024/01/06 00:52:20;;;;;;;34.60;14.32;;;6.80;99.90;;;;;;5106834;28;20027;-69
2024/01/06 00:54:47;;;;;;;33.53;14.27;;;6.80;99.90;;;;;;5106699;28;20032;-69
2024/01/06 00:57:12;;;;;;;32.88;13.48;;;6.80;99.90;;;;;;5107088;28;20048;-69
2024/01/06 00:59:38;;;;;;;30.13;12.73;;;6.80;99.90;;;;;;5106840;28;20051;-70
2024/01/06 01:02:04;;;;;;;38.53;14.30;;;6.80;99.90;;;;;;5106764;28;20404;-69
2024/01/06 01:04:29;;;;;;;31.83;13.60;;;6.70;99.90;;;;;;5088077;28;20022;-70
2024/01/06 01:06:55;;;;;;;35.20;14.23;;;6.70;99.90;;;;;;5106761;28;20365;-70
2024/01/06 01:09:20;;;;;;;32.65;13.73;;;6.70;99.90;;;;;;5106455;28;20114;-70
2024/01/06 01:11:46;;;;;;;34.85;13.73;;;6.70;99.90;;;;;;5088254;28;20028;-70
2024/01/06 01:14:12;;;;;;;35.22;14.23;;;6.60;99.90;;;;;;5106372;28;20027;-70
2024/01/06 01:16:37;;;;;;;34.53;13.70;;;6.60;99.90;;;;;;5088427;28;20027;-70
2024/01/06 01:19:03;;;;;;;32.17;14.05;;;6.60;99.90;;;;;;5106442;28;20019;-70
2024/01/06 01:21:28;;;;;;;31.73;13.38;;;6.60;99.90;;;;;;5088395;28;20053;-70
2024/01/06 01:23:54;;;;;;;34.33;14.20;;;6.60;99.90;;;;;;5107138;28;20015;-70
2024/01/06 01:26:20;;;;;;;29.70;13.23;;;6.60;99.90;;;;;;5110575;28;20493;-70
2024/01/06 01:28:45;;;;;;;35.65;13.85;;;6.50;99.90;;;;;;5110019;28;20030;-70
2024/01/06 01:31:12;;;;;;;34.83;13.20;;;6.50;99.90;;;;;;5110795;28;20023;-70
2024/01/06 01:33:38;;;;;;;28.77;13.07;;;6.60;99.90;;;;;;5110479;28;20358;-70
2024/01/06 01:36:04;;;;;;;31.52;13.07;;;6.50;99.90;;;;;;5110116;28;20034;-70
2024/01/06 01:38:29;;;;;;;28.88;12.43;;;6.50;99.90;;;;;;5109842;28;20160;-70
2024/01/06 01:40:55;;;;;;;31.35;12.85;;;6.50;99.90;;;;;;5091360;28;20023;-70
2024/01/06 01:43:21;;;;;;;32.67;12.95;;;6.50;99.90;;;;;;5091981;28;20019;-70
2024/01/06 01:45:56;;;;;;;26.75;12.00;;;6.50;99.90;;;;;;5109945;28;20113;-69
2024/01/06 01:48:22;;;;;;;28.42;12.75;;;6.50;99.90;;;;;;5110305;28;20019;-70
2024/01/06 01:50:48;;;;;;;28.88;12.57;;;6.50;99.90;;;;;;5109882;28;20019;-70
2024/01/06 01:53:14;;;;;;;34.60;13.25;;;6.50;99.90;;;;;;5091799;28;20537;-71
2024/01/06 01:55:43;;;;;;;28.55;11.95;;;6.50;99.90;;;;;;5109615;28;20042;-69
2024/01/06 01:58:10;;;;;;;31.83;13.23;;;6.50;99.90;;;;;;5109841;28;20055;-70
2024/01/06 02:00:36;;;;;;;21.75;10.73;;;6.50;99.90;;;;;;5109772;28;20024;-69
2024/01/06 02:03:04;;;;;;;32.47;14.15;;;6.50;99.90;;;;;;5109783;28;20016;-70
2024/01/06 02:05:30;;;;;;;28.58;12.18;;;6.50;99.90;;;;;;5109555;28;20051;-70
2024/01/06 02:07:55;;;;;;;35.20;13.93;;;6.50;99.90;;;;;;5109843;28;20621;-69
2024/01/06 02:10:21;;;;;;;35.28;13.25;;;6.50;99.90;;;;;;5109134;28;20028;-69
2024/01/06 02:12:48;;;;;;;31.35;13.38;;;6.50;99.90;;;;;;5109596;28;20098;-69
2024/01/06 02:15:14;;;;;;;36.15;14.38;;;6.50;99.90;;;;;;5109421;28;20031;-68
2024/01/06 02:17:40;;;;;;;32.40;14.02;;;6.50;99.90;;;;;;5109726;28;20076;-69
2024/01/06 02:20:08;;;;;;;35.60;14.30;;;6.50;99.90;;;;;;5090873;28;20016;-69
2024/01/06 02:22:35;;;;;;;34.28;13.98;;;6.50;99.90;;;;;;5109493;28;20088;-69
2024/01/06 02:25:02;;;;;;;32.30;13.02;;;6.50;99.90;;;;;;5090587;28;20027;-70
2024/01/06 02:27:27;;;;;;;32.25;13.55;;;6.50;99.90;;;;;;5109489;28;20046;-69
2024/01/06 02:29:53;;;;;;;33.75;13.32;;;6.50;99.90;;;;;;5108910;28;20484;-69
2024/01/06 02:32:18;;;;;;;39.13;14.95;;;6.50;99.90;;;;;;5109420;28;20035;-69
2024/01/06 02:34:44;;;;;;;37.67;15.00;;;6.50;99.90;;;;;;5108840;28;20027;-70
2024/01/06 02:37:10;;;;;;;37.67;15.05;;;6.40;99.90;;;;;;5109142;28;20044;-69
2024/01/06 02:39:35;;;;;;;38.92;15.55;;;6.40;99.90;;;;;;5090281;28;20062;-69
2024/01/06 02:42:01;;;;;;;39.65;14.77;;;6.30;99.90;;;;;;5090683;28;20557;-70
2024/01/06 02:44:26;;;;;;;36.38;14.68;;;6.40;99.90;;;;;;5108682;28;20660;-70
2024/01/06 02:46:54;;;;;;;44.88;16.70;;;6.30;99.90;;;;;;5109054;28;20027;-69
2024/01/06 02:49:19;;;;;;;50.35;17.20;;;6.30;99.90;;;;;;5108739;28;20024;-69
2024/01/06 02:51:45;;;;;;;39.33;14.70;;;6.30;99.90;;;;;;5109020;28;20026;-70
2024/01/06 02:54:11;;;;;;;44.95;16.05;;;6.30;99.90;;;;;;5108668;28;20439;-69
2024/01/06 02:56:38;;;;;;;41.47;14.73;;;6.30;99.90;;;;;;5108935;28;20080;-69
2024/01/06 02:59:03;;;;;;;37.78;15.35;;;6.30;99.90;;;;;;5108798;28;20047;-69
2024/01/06 03:01:31;;;;;;;46.55;17.50;;;6.30;99.90;;;;;;5090613;28;20030;-70
2024/01/06 03:03:57;;;;;;;38.55;16.40;;;6.30;99.90;;;;;;5108180;28;20024;-69
2024/01/06 03:06:22;;;;;;;41.10;16.90;;;6.20;99.90;;;;;;5108707;28;20475;-69
2024/01/06 03:08:48;;;;;;;40.42;17.08;;;6.20;99.90;;;;;;5108327;28;20027;-70
2024/01/06 03:11:22;;;;;;;41.40;16.48;;;6.20;99.90;;;;;;5108540;28;20426;-69
2024/01/06 03:13:47;;;;;;;46.63;18.23;;;6.20;99.90;;;;;;5090063;28;20100;-69
2024/01/06 03:16:13;;;;;;;46.50;17.33;;;6.20;99.90;;;;;;5089818;28;20520;-69
2024/01/06 03:18:39;;;;;;;39.03;16.63;;;6.20;99.90;;;;;;5089860;28;20564;-70
2024/01/06 03:21:04;;;;;;;44.70;17.23;;;6.20;99.90;;;;;;5107860;28;20023;-70
2024/01/06 03:23:30;;;;;;;51.70;19.35;;;6.20;99.90;;;;;;5089991;28;20020;-70
2024/01/06 03:25:56;;;;;;;49.08;19.58;;;6.10;99.90;;;;;;5108092;28;20047;-69
2024/01/06 03:28:21;;;;;;;43.55;19.25;;;6.20;99.90;;;;;;5108151;28;20106;-69
2024/01/06 03:30:47;;;;;;;42.63;17.73;;;6.10;99.90;;;;;;5107759;28;20032;-69
2024/01/06 03:33:13;;;;;;;49.95;19.08;;;6.10;99.90;;;;;;5108173;28;20027;-69
2024/01/06 03:35:38;;;;;;;46.25;18.30;;;6.20;99.90;;;;;;5107664;28;20040;-70
2024/01/06 03:38:04;;;;;;;45.85;18.08;;;6.10;99.90;;;;;;5107728;28;20044;-70
2024/01/06 03:40:29;;;;;;;38.63;16.00;;;6.10;99.90;;;;;;5108206;28;20023;-70
2024/01/06 03:42:55;;;;;;;49.45;17.90;;;6.20;99.90;;;;;;5107642;28;20135;-69
2024/01/06 03:45:21;;;;;;;42.28;18.50;;;6.10;99.90;;;;;;5107501;28;20034;-69
2024/01/06 03:47:46;;;;;;;45.63;17.70;;;6.10;99.90;;;;;;5107380;28;20024;-69
2024/01/06 03:50:12;;;;;;;46.85;17.05;;;6.10;99.90;;;;;;5089195;28;20031;-69
2024/01/06 03:52:38;;;;;;;49.17;19.35;;;6.10;99.90;;;;;;5107554;28;20130;-69
2024/01/06 03:55:05;;;;;;;50.80;18.83;;;6.10;99.90;;;;;;5089009;28;20207;-70
2024/01/06 03:57:31;;;;;;;44.15;17.48;;;6.10;99.90;;;;;;5107313;28;20027;-70
2024/01/06 03:59:57;;;;;;;41.30;17.63;;;6.10;99.90;;;;;;5107220;28;20027;-70
2024/01/06 04:02:27;;;;;;;43.95;18.15;;;6.10;99.90;;;;;;5107506;28;20023;-70
2024/01/06 04:04:53;;;;;;;45.13;18.92;;;6.10;99.90;;;;;;5088683;28;20062;-70
2024/01/06 04:07:18;;;;;;;41.10;17.95;;;6.10;99.90;;;;;;5107691;28;20048;-70
2024/01/06 04:09:44;;;;;;;37.95;16.05;;;6.10;99.90;;;;;;5107149;28;20039;-70
2024/01/06 04:12:10;;;;;;;48.38;19.35;;;6.10;99.90;;;;;;5089083;28;20023;-71
2024/01/06 04:14:35;;;;;;;47.97;18.05;;;6.10;99.90;;;;;;5107243;28;20621;-70
2024/01/06 04:17:01;;;;;;;47.00;18.27;;;6.10;99.90;;;;;;5107515;28;20071;-70
2024/01/06 04:19:30;;;;;;;48.17;18.10;;;6.10;99.90;;;;;;5107052;28;20020;-70
2024/01/06 04:21:57;;;;;;;48.60;17.35;;;6.10;99.90;;;;;;5089018;28;20365;-70
2024/01/06 04:24:23;;;;;;;47.70;18.13;;;6.10;99.90;;;;;;5107207;28;20119;-70
2024/01/06 04:26:49;;;;;;;49.40;18.65;;;6.10;99.90;;;;;;5107212;28;20539;-70
2024/01/06 04:29:15;;;;;;;48.95;19.83;;;6.00;99.90;;;;;;5107085;28;20022;-70
2024/01/06 04:31:41;;;;;;;52.70;20.98;;;6.00;99.90;;;;;;5107408;28;20043;-70
2024/01/06 04:34:07;;;;;;;51.13;20.77;;;6.00;99.90;;;;;;5106946;28;20019;-71
2024/01/06 04:36:32;;;;;;;50.40;19.38;;;6.00;99.90;;;;;;5106811;28;20813;-70
2024/01/06 04:38:58;;;;;;;50.80;20.58;;;6.00;99.90;;;;;;5106677;28;20724;-70
2024/01/06 04:41:24;;;;;;;51.70;20.33;;;6.00;99.90;;;;;;5107027;28;20059;-71
2024/01/06 04:43:49;;;;;;;50.00;21.33;;;6.00;99.90;;;;;;5107028;28;20063;-70
2024/01/06 04:46:15;;;;;;;55.95;21.58;;;5.90;99.90;;;;;;5106867;28;20118;-70
2024/01/06 04:48:41;;;;;;;40.85;18.88;;;6.00;99.90;;;;;;5088701;28;20024;-71
2024/01/06 04:51:10;;;;;;;48.53;20.13;;;5.90;99.90;;;;;;5106523;28;20028;-70
2024/01/06 04:53:36;;;;;;;52.05;21.45;;;5.90;99.90;;;;;;5107247;28;20385;-70
2024/01/06 04:56:02;;;;;;;53.63;21.58;;;5.90;99.90;;;;;;5106737;28;20102;-70
2024/01/06 04:58:27;;;;;;;58.70;21.42;;;5.90;99.90;;;;;;5107274;28;20610;-70
2024/01/06 05:00:53;;;;;;;51.15;20.10;;;5.90;99.90;;;;;;5110686;28;20035;-71
2024/01/06 05:03:19;;;;;;;53.95;21.35;;;5.90;99.90;;;;;;5111022;28;20020;-70
2024/01/06 05:05:44;;;;;;;49.95;20.00;;;5.90;99.90;;;;;;5110570;28;20019;-70
2024/01/06 05:08:10;;;;;;;50.63;19.67;;;5.90;99.90;;;;;;5092834;28;20042;-70
2024/01/06 05:10:36;;;;;;;47.85;18.52;;;5.80;99.90;;;;;;5110666;28;20119;-70
2024/01/06 05:13:04;;;;;;;41.33;18.63;;;5.80;99.90;;;;;;5110814;28;20429;-70
2024/01/06 05:15:30;;;;;;;42.88;16.60;;;5.80;99.90;;;;;;5110259;28;20028;-73
2024/01/06 05:17:55;;;;;;;35.67;16.00;;;5.80;99.90;;;;;;5110593;28;20019;-70
2024/01/06 05:20:21;;;;;;;37.15;15.40;;;5.80;99.90;;;;;;5110221;28;20034;-70
2024/01/06 05:22:47;;;;;;;24.75;12.02;;;5.80;99.90;;;;;;5110530;28;20020;-70
2024/01/06 05:25:12;;;;;;;32.00;13.20;;;5.80;99.90;;;;;;5091996;28;20020;-70
2024/01/06 05:27:38;;;;;;;28.83;12.93;;;5.80;99.90;;;;;;5110957;28;20396;-70
2024/01/06 05:30:04;;;;;;;28.83;13.40;;;5.70;99.90;;;;;;5110236;28;20408;-69
2024/01/06 05:32:30;;;;;;;29.10;13.00;;;5.70;99.90;;;;;;5110530;28;20390;-70
2024/01/06 05:34:55;;;;;;;27.50;12.68;;;5.70;99.90;;;;;;5110041;28;20026;-69
2024/01/06 05:37:21;;;;;;;28.40;13.63;;;5.70;99.90;;;;;;5110075;28;20044;-69
2024/01/06 05:39:47;;;;;;;26.77;12.50;;;5.60;99.90;;;;;;5110100;28;20019;-69
2024/01/06 05:42:14;;;;;;;30.42;14.05;;;5.60;99.90;;;;;;5110415;28;20519;-70
2024/01/06 05:44:40;;;;;;;31.02;13.65;;;5.60;99.90;;;;;;5110143;28;20107;-70
2024/01/06 05:47:06;;;;;;;28.25;13.02;;;5.60;99.90;;;;;;5110344;28;20610;-75
2024/01/06 05:49:32;;;;;;;26.52;11.90;;;5.60;99.90;;;;;;5091491;28;20027;-72
2024/01/06 05:51:57;;;;;;;29.02;12.82;;;5.60;99.90;;;;;;5110122;28;20028;-72
2024/01/06 05:54:23;;;;;;;25.15;12.68;;;5.50;99.90;;;;;;5110305;28;20389;-70
2024/01/06 05:56:49;;;;;;;26.88;12.55;;;5.50;99.90;;;;;;5109634;28;20401;-70
2024/01/06 05:59:14;;;;;;;28.08;13.10;;;5.50;99.90;;;;;;5110357;28;20490;-70
2024/01/06 06:01:40;;;;;;;31.33;14.02;;;5.50;99.90;;;;;;5109572;28;20553;-70
2024/01/06 06:04:06;;;;;;;32.40;14.25;;;5.40;99.90;;;;;;5091426;28;20145;-71
2024/01/06 06:06:32;;;;;;;36.42;14.77;;;5.40;99.90;;;;;;5109593;28;20155;-71
2024/01/06 06:08:58;;;;;;;29.48;13.88;;;5.40;99.90;;;;;;5109984;28;20032;-69
2024/01/06 06:11:24;;;;;;;27.05;13.05;;;5.40;99.90;;;;;;5108926;28;20780;-70
2024/01/06 06:13:49;;;;;;;33.75;15.68;;;5.40;99.90;;;;;;5109755;28;20034;-70
2024/01/06 06:16:15;;;;;;;34.50;15.95;;;5.40;99.90;;;;;;5109726;28;20020;-70
2024/01/06 06:18:40;;;;;;;30.85;15.35;;;5.40;99.90;;;;;;5109451;28;20746;-69
2024/01/06 06:21:07;;;;;;;37.15;15.20;;;5.40;99.90;;;;;;5109330;28;20032;-71
2024/01/06 06:23:33;;;;;;;30.52;14.10;;;5.40;99.90;;;;;;5109828;28;20019;-69
2024/01/06 06:26:03;;;;;;;30.27;13.55;;;5.30;99.90;;;;;;5109635;28;20070;-70
2024/01/06 06:28:28;;;;;;;30.83;15.02;;;5.30;99.90;;;;;;5090939;28;20028;-70
2024/01/06 06:30:54;;;;;;;25.83;13.65;;;5.30;99.90;;;;;;5108542;27;20036;-70
2024/01/06 06:33:20;;;;;;;23.35;11.32;;;5.30;99.90;;;;;;5109399;28;20406;-70
2024/01/06 06:35:45;;;;;;;26.10;13.20;;;5.30;99.90;;;;;;5090213;28;20055;-70
2024/01/06 06:38:11;;;;;;;24.70;13.70;;;5.30;99.90;;;;;;5109104;28;20050;-70
2024/01/06 06:40:37;;;;;;;31.02;15.02;;;5.30;99.90;;;;;;5090601;28;20031;-70
2024/01/06 06:43:03;;;;;;;30.23;15.23;;;5.20;99.90;;;;;;5090635;28;20023;-70
2024/01/06 06:45:28;;;;;;;30.27;15.07;;;5.20;99.90;;;;;;5090579;28;20015;-70
2024/01/06 06:47:54;;;;;;;29.65;15.13;;;5.20;99.90;;;;;;5108782;28;20032;-70
2024/01/06 06:50:20;;;;;;;27.92;14.00;;;5.20;99.90;;;;;;5089945;27;20051;-70
2024/01/06 06:52:46;;;;;;;27.02;14.35;;;5.10;99.90;;;;;;5090333;28;20397;-70
2024/01/06 06:55:12;;;;;;;28.70;15.52;;;5.10;99.90;;;;;;5108611;28;20026;-70
2024/01/06 06:57:39;;;;;;;29.15;15.15;;;5.10;99.90;;;;;;5108888;28;20023;-70
2024/01/06 07:00:07;;;;;;;29.08;14.52;;;5.10;99.90;;;;;;5090050;28;20028;-69
2024/01/06 07:02:33;;;;;;;25.80;13.85;;;5.10;99.90;;;;;;5091035;28;20034;-70
2024/01/06 07:04:59;;;;;;;31.10;14.65;;;5.10;99.90;;;;;;5108295;28;20020;-70
2024/01/06 07:07:24;;;;;;;23.70;13.00;;;5.10;99.90;;;;;;5108966;28;20330;-69
2024/01/06 07:09:50;;;;;;;27.75;15.25;;;5.10;99.90;;;;;;5108110;28;20024;-69
2024/01/06 07:12:16;;;;;;;30.75;16.17;;;5.10;99.90;;;;;;5108673;28;20476;-70
2024/01/06 07:14:41;;;;;;;26.67;14.68;;;5.10;99.90;;;;;;5089826;28;20030;-70
2024/01/06 07:17:08;;;;;;;29.85;15.27;;;5.10;99.90;;;;;;5108639;28;20038;-70
2024/01/06 07:19:36;;;;;;;29.40;15.82;;;5.10;99.90;;;;;;5108782;28;20073;-70
2024/01/06 07:22:01;;;;;;;25.73;14.68;;;5.10;99.90;;;;;;5107007;28;20049;-70
2024/01/06 07:24:27;;;;;;;26.15;14.35;;;5.10;99.90;;;;;;5108623;28;20011;-70
2024/01/06 07:26:53;;;;;;;27.60;14.60;;;5.10;99.90;;;;;;5089481;28;20485;-70
2024/01/06 07:29:18;;;;;;;25.48;14.63;;;5.10;99.90;;;;;;5093809;28;20068;-70
2024/01/06 07:31:44;;;;;;;26.52;14.95;;;5.10;99.90;;;;;;5107517;28;20012;-71
2024/01/06 07:34:10;;;;;;;25.45;15.05;;;5.00;99.90;;;;;;5107638;28;20434;-71
2024/01/06 07:36:36;;;;;;;27.52;14.68;;;5.00;99.90;;;;;;5107803;27;20019;-70
2024/01/06 07:39:02;;;;;;;26.00;14.90;;;5.10;99.90;;;;;;5107620;28;20079;-70
2024/01/06 07:41:30;;;;;;;25.30;14.10;;;5.00;99.90;;;;;;5107527;28;20480;-70
2024/01/06 07:43:56;;;;;;;22.70;13.13;;;5.00;99.90;;;;;;5108254;28;20020;-70
2024/01/06 07:46:22;;;;;;;25.73;14.02;;;5.00;99.90;;;;;;5089066;28;20387;-71
2024/01/06 07:48:47;;;;;;;27.50;14.05;;;5.00;99.90;;;;;;5089477;28;20024;-70
2024/01/06 07:51:13;;;;;;;27.40;14.77;;;5.00;99.90;;;;;;5107414;28;20235;-70
2024/01/06 07:53:38;;;;;;;26.20;14.02;;;5.00;99.90;;;;;;5089287;28;20492;-70
2024/01/06 07:56:04;;;;;;;27.27;14.82;;;5.00;99.90;;;;;;5107181;28;20103;-70
2024/01/06 07:58:30;;;;;;;25.95;14.63;;;5.00;99.90;;;;;;5108001;28;20047;-71
2024/01/06 08:00:56;;;;;;;25.73;14.00;;;5.00;99.90;;;;;;5107396;28;20037;-70
2024/01/06 08:03:21;;;;;;;26.55;13.70;;;5.00;99.90;;;;;;5107579;28;20022;-69
2024/01/06 08:05:47;;;;;;;27.08;13.88;;;5.00;99.90;;;;;;5106945;28;20543;-71
2024/01/06 08:08:16;;;;;;;24.05;13.63;;;5.00;99.90;;;;;;5107505;28;20032;-70
2024/01/06 08:10:42;;;;;;;26.85;13.10;;;5.00;99.90;;;;;;5107162;28;20019;-71
2024/01/06 08:13:08;;;;;;;21.42;12.32;;;5.00;99.90;;;;;;5107790;28;20016;-71
2024/01/06 08:15:34;;;;;;;22.45;11.70;;;4.90;99.90;;;;;;5089038;28;20640;-71
2024/01/06 08:17:59;;;;;;;23.88;12.88;;;4.90;99.90;;;;;;5107611;28;20031;-71
2024/01/06 08:20:25;;;;;;;24.75;13.32;;;4.90;99.90;;;;;;5106984;28;20440;-71
2024/01/06 08:22:51;;;;;;;25.17;13.07;;;4.90;99.90;;;;;;5106938;28;20035;-71
2024/01/06 08:25:20;;;;;;;25.42;12.90;;;4.90;99.90;;;;;;5112917;27;20025;-70
2024/01/06 08:27:46;;;;;;;21.88;12.20;;;4.90;99.90;;;;;;5111446;27;20016;-71
2024/01/06 08:30:12;;;;;;;22.75;12.18;;;4.90;99.90;;;;;;5119181;28;20037;-70
2024/01/06 08:32:38;;;;;;;20.65;12.15;;;4.90;99.90;;;;;;5109752;28;20054;-71
2024/01/06 08:35:04;;;;;;;22.02;11.90;;;4.90;99.90;;;;;;5115646;27;20059;-70
2024/01/06 08:37:30;;;;;;;21.90;11.82;;;4.90;99.90;;;;;;5106454;28;20051;-70
2024/01/06 08:39:55;;;;;;;23.05;12.27;;;4.90;99.90;;;;;;5116269;28;20019;-71
2024/01/06 08:42:21;;;;;;;25.48;12.57;;;4.80;99.90;;;;;;5121535;28;20023;-71
2024/01/06 08:44:47;;;;;;;23.85;12.07;;;4.90;99.90;;;;;;5099888;28;20027;-70
2024/01/06 08:47:13;;;;;;;27.60;13.02;;;4.90;99.90;;;;;;5112907;28;20039;-70
2024/01/06 08:49:39;;;;;;;26.15;12.95;;;4.80;99.90;;;;;;5106974;28;20093;-70
2024/01/06 08:52:05;;;;;;;23.23;12.00;;;4.90;99.90;;;;;;5106687;28;20053;-71
2024/01/06 08:54:31;;;;;;;27.33;12.85;;;4.90;99.90;;;;;;5107132;28;20023;-70
2024/01/06 08:56:57;;;;;;;24.33;13.40;;;4.80;99.90;;;;;;5106718;28;20028;-70
2024/01/06 08:59:23;;;;;;;24.83;12.80;;;4.90;99.90;;;;;;5107083;28;20046;-70
2024/01/06 09:01:48;;;;;;;25.08;13.15;;;4.90;99.90;;;;;;5088526;28;20011;-70
2024/01/06 09:04:14;;;;;;;27.63;12.60;;;4.80;99.90;;;;;;5111931;28;20385;-70
2024/01/06 09:06:41;;;;;;;27.02;13.15;;;4.80;99.90;;;;;;5096370;28;20534;-71
2024/01/06 09:09:08;;;;;;;27.65;13.48;;;4.90;99.90;;;;;;5122958;28;20023;-70
2024/01/06 09:11:34;;;;;;;26.42;12.95;;;4.80;99.90;;;;;;5120212;28;20501;-70
2024/01/06 09:14:00;;;;;;;25.77;13.73;;;4.90;99.90;;;;;;5108498;28;20035;-71
2024/01/06 09:16:26;;;;;;;30.77;14.25;;;4.80;99.90;;;;;;5092330;28;20023;-71
2024/01/06 09:18:52;;;;;;;30.00;13.02;;;4.80;99.90;;;;;;5115730;28;20031;-71
2024/01/06 09:21:17;;;;;;;31.02;14.73;;;4.80;99.90;;;;;;5119168;28;20015;-70
2024/01/06 09:23:43;;;;;;;30.15;14.80;;;4.80;99.90;;;;;;5120587;28;20365;-70
2024/01/06 09:26:09;;;;;;;28.73;13.38;;;4.80;99.90;;;;;;5124098;28;20050;-71
2024/01/06 09:28:35;;;;;;;24.08;12.90;;;4.80;99.90;;;;;;5126675;28;20050;-71
2024/01/06 09:31:00;;;;;;;31.23;15.40;;;4.80;99.90;;;;;;5093896;28;20076;-71
2024/01/06 09:33:26;;;;;;;33.85;16.20;;;4.80;99.90;;;;;;5111594;28;20078;-71
2024/01/06 09:35:52;;;;;;;29.27;14.50;;;4.80;99.90;;;;;;5112502;28;20023;-71
2024/01/06 09:38:18;;;;;;;33.45;15.50;;;4.80;99.90;;;;;;5117541;28;20497;-72
2024/01/06 09:40:45;;;;;;;29.30;14.80;;;4.80;99.90;;;;;;5116307;28;20110;-71
2024/01/06 09:43:11;;;;;;;31.88;16.02;;;4.80;99.90;;;;;;5116261;28;20027;-70
2024/01/06 09:45:39;;;;;;;29.65;15.02;;;4.70;99.90;;;;;;5123135;27;20099;-71
2024/01/06 09:48:11;;;;;;;28.48;14.40;;;4.80;99.90;;;;;;5123038;27;20023;-71
2024/01/06 09:50:40;;;;;;;32.75;15.40;;;4.70;99.90;;;;;;5127395;27;20053;-72
2024/01/06 09:53:08;;;;;;;34.63;16.08;;;4.70;99.90;;;;;;5119758;27;20024;-71
2024/01/06 09:55:35;;;;;;;34.83;16.73;;;4.70;99.90;;;;;;5107788;27;20417;-71
2024/01/06 09:58:01;;;;;;;35.22;16.48;;;4.70;99.90;;;;;;5118396;27;20024;-72
2024/01/06 10:00:28;;;;;;;36.63;17.27;;;4.80;99.90;;;;;;5121920;27;20019;-72
2024/01/06 10:02:55;;;;;;;33.47;17.05;;;4.70;99.90;;;;;;5095415;27;20119;-72
2024/01/06 10:05:21;;;;;;;34.40;17.30;;;4.80;99.90;;;;;;5109403;28;20106;-71
2024/01/06 10:07:47;;;;;;;30.50;16.42;;;4.80;99.90;;;;;;5122688;27;20034;-71
2024/01/06 10:10:14;;;;;;;31.75;17.38;;;4.80;99.90;;;;;;5095830;28;20144;-71
2024/01/06 10:12:41;;;;;;;32.90;17.38;;;4.70;99.90;;;;;;5090897;28;20065;-71
2024/01/06 10:15:11;;;;;;;33.35;16.60;;;4.70;99.90;;;;;;5112064;27;20136;-70
2024/01/06 10:17:38;;;;;;;31.67;15.38;;;4.70;99.90;;;;;;5105135;27;20031;-69
2024/01/06 10:20:10;;;;;;;27.58;15.05;;;4.70;99.90;;;;;;5100372;27;20019;-69
2024/01/06 10:22:37;;;;;;;34.40;18.27;;;4.70;99.90;;;;;;5109748;27;20107;-70
2024/01/06 10:25:06;;;;;;;31.90;16.83;;;4.70;99.90;;;;;;5090027;28;20028;-70
2024/01/06 10:27:35;;;;;;;33.28;17.27;;;4.70;99.90;;;;;;5107973;27;20027;-70
2024/01/06 10:30:01;;;;;;;50.50;21.85;;;4.70;99.90;;;;;;5103102;27;20035;-70
2024/01/06 10:32:30;;;;;;;35.10;17.75;;;4.70;99.90;;;;;;5107561;28;20998;-70
2024/01/06 10:34:56;;;;;;;34.08;17.30;;;4.70;99.90;;;;;;5089390;28;20028;-70
2024/01/06 10:37:21;;;;;;;33.63;16.85;;;4.70;99.90;;;;;;5106850;28;20075;-71
2024/01/06 10:39:47;;;;;;;33.67;16.92;;;4.70;99.90;;;;;;5089371;28;20068;-71
2024/01/06 10:42:14;;;;;;;32.17;16.63;;;4.70;99.90;;;;;;5088387;28;20521;-71
2024/01/06 10:44:42;;;;;;;27.05;15.60;;;4.70;99.90;;;;;;5105713;28;20796;-70
2024/01/06 10:47:08;;;;;;;32.05;16.15;;;4.70;99.90;;;;;;5115416;27;20016;-71
2024/01/06 10:49:36;;;;;;;29.58;15.75;;;4.70;99.90;;;;;;5126436;27;20098;-70
2024/01/06 10:52:01;;;;;;;25.27;14.63;;;4.70;99.90;;;;;;5128534;27;20118;-70
2024/01/06 10:54:28;;;;;;;28.27;15.32;;;4.70;99.90;;;;;;5113267;27;20106;-70
2024/01/06 10:56:56;;;;;;;30.08;14.90;;;4.70;99.90;;;;;;5111061;27;20038;-70
2024/01/06 10:59:26;;;;;;;27.02;15.07;;;4.70;99.90;;;;;;5112143;27;20062;-70
2024/01/06 11:01:53;;;;;;;28.80;15.20;;;4.80;99.90;;;;;;5107562;28;20059;-69
2024/01/06 11:04:22;;;;;;;24.73;14.18;;;4.70;99.90;;;;;;5108338;28;20586;-69
2024/01/06 11:06:48;;;;;;;25.08;14.60;;;4.80;99.90;;;;;;5105303;27;20071;-70
2024/01/06 11:09:21;;;;;;;26.13;15.48;;;4.80;99.90;;;;;;5088698;28;20024;-70
2024/01/06 11:11:48;;;;;;;30.23;16.33;;;4.80;99.90;;;;;;5115320;27;20027;-70
2024/01/06 11:14:25;;;;;;;27.02;15.27;;;4.80;99.90;;;;;;5116490;27;20070;-70
2024/01/06 11:16:51;;;;;;;31.00;15.88;;;4.80;99.90;;;;;;5117747;27;20019;-69
2024/01/06 11:19:36;;;;;;;25.67;15.02;;;4.80;99.90;;;;;;5108013;28;20027;-69
2024/01/06 11:22:24;;;;;;;29.08;16.75;;;4.70;99.90;;;;;;5107264;28;20027;-69
2024/01/06 11:24:52;;;;;;;28.58;15.52;;;4.70;99.90;;;;;;5089866;28;20020;-70
2024/01/06 11:27:28;;;;;;;29.40;16.33;;;4.80;99.90;;;;;;5089323;28;20023;-70
2024/01/06 11:29:55;;;;;;;26.25;14.13;;;4.70;99.90;;;;;;5109748;27;20511;-70
2024/01/06 11:32:29;;;;;;;27.10;15.60;;;4.70;99.90;;;;;;5110397;27;20020;-70
2024/01/06 11:35:04;;;;;;;30.98;16.33;;;4.70;99.90;;;;;;5112735;27;20084;-70
2024/01/06 11:37:41;;;;;;;28.15;15.32;;;4.70;99.90;;;;;;5106594;28;20119;-70
2024/01/06 11:40:25;;;;;;;30.15;16.13;;;4.70;99.90;;;;;;5107615;28;20027;-71
2024/01/06 11:43:02;;;;;;;26.08;14.48;;;4.70;99.90;;;;;;5107175;28;20024;-70
2024/01/06 11:45:28;;;;;;;28.67;15.35;;;4.70;99.90;;;;;;5107880;28;20015;-70
2024/01/06 11:47:59;;;;;;;28.33;15.32;;;4.70;99.90;;;;;;5107174;28;20057;-70
2024/01/06 11:50:26;;;;;;;26.77;14.60;;;4.70;99.90;;;;;;5107578;28;20496;-70
2024/01/06 11:52:52;;;;;;;25.65;15.55;;;4.70;99.90;;;;;;5107002;28;20098;-70
2024/01/06 11:55:18;;;;;;;23.92;13.82;;;4.70;99.90;;;;;;5104057;28;20032;-69
2024/01/06 11:57:44;;;;;;;24.98;14.80;;;4.70;99.90;;;;;;5097746;28;20031;-70
2024/01/06 12:00:11;;;;;;;23.23;13.65;;;4.70;99.90;;;;;;5094882;28;20032;-70
2024/01/06 12:02:37;;;;;;;23.92;14.05;;;4.70;99.90;;;;;;5082792;28;20031;-70
2024/01/06 12:05:03;;;;;;;25.40;14.40;;;4.70;99.90;;;;;;5105862;27;20409;-70
2024/01/06 12:07:29;;;;;;;21.58;13.70;;;4.70;99.90;;;;;;5088120;28;20531;-70
2024/01/06 12:10:02;;;;;;;23.85;13.57;;;4.70;99.90;;;;;;5088305;28;20027;-71
2024/01/06 12:12:28;;;;;;;22.88;13.80;;;4.60;99.90;;;;;;5106930;28;20036;-70
2024/01/06 12:14:53;;;;;;;26.20;14.73;;;4.60;99.90;;;;;;5089201;28;20175;-70
2024/01/06 12:17:21;;;;;;;26.42;15.27;;;4.70;99.90;;;;;;5107006;28;20652;-70
2024/01/06 12:19:47;;;;;;;26.38;15.10;;;4.60;99.90;;;;;;5088543;28;20115;-70
2024/01/06 12:22:15;;;;;;;22.83;14.35;;;4.60;99.90;;;;;;5103697;28;20124;-70
2024/01/06 12:24:44;;;;;;;27.55;14.40;;;4.70;99.90;;;;;;5078042;28;20027;-71
2024/01/06 12:27:10;;;;;;;25.05;14.07;;;4.60;99.90;;;;;;5102911;28;20108;-72
2024/01/06 12:29:40;;;;;;;25.95;15.63;;;4.60;99.90;;;;;;5107315;28;20023;-71
2024/01/06 12:32:10;;;;;;;20.63;13.03;;;4.60;99.90;;;;;;5106449;28;20024;-71